createdAt,value
2023-03-25T00:01:09.423Z,66.60
2023-03-25T00:06:07.374Z,66.15
2023-03-25T00:11:04.591Z,66.22
2023-03-25T00:16:02.039Z,66.32
2023-03-25T00:20:58.896Z,66.40
2023-03-25T00:26:00.149Z,66.57
2023-03-25T00:31:06.574Z,66.70
2023-03-25T00:36:04.840Z,66.45
2023-03-25T00:41:25.269Z,66.52
2023-03-25T00:46:23.235Z,66.79
2023-03-25T00:51:21.460Z,66.53
2023-03-25T00:56:17.974Z,66.73
2023-03-25T01:01:16.917Z,67.14
2023-03-25T01:06:16.158Z,67.19
2023-03-25T01:11:21.450Z,67.59
2023-03-25T01:16:18.037Z,67.81
2023-03-25T01:21:14.828Z,67.68
2023-03-25T01:26:12.898Z,67.34
2023-03-25T01:31:11.657Z,67.40
2023-03-25T01:36:13.040Z,67.61
2023-03-25T01:41:11.913Z,67.88
2023-03-25T01:46:14.333Z,67.91
2023-03-25T01:51:13.499Z,67.60
2023-03-25T01:56:13.459Z,67.61
2023-03-25T02:01:13.621Z,67.50
2023-03-25T02:06:15.139Z,67.25
2023-03-25T02:11:11.946Z,67.26
2023-03-25T02:16:23.511Z,67.57
2023-03-25T02:22:00.645Z,67.41
2023-03-25T02:27:33.818Z,67.39
2023-03-25T02:33:01.770Z,67.88
2023-03-25T02:38:17.869Z,67.33
2023-03-25T02:43:20.970Z,67.28
2023-03-25T02:48:23.814Z,67.50
2023-03-25T02:53:26.696Z,67.41
2023-03-25T02:58:24.938Z,67.27
2023-03-25T03:03:21.534Z,67.47
2023-03-25T03:08:38.578Z,67.99
2023-03-25T03:14:13.810Z,67.69
2023-03-25T03:19:24.967Z,67.98
2023-03-25T03:24:27.667Z,67.86
2023-03-25T03:29:32.340Z,67.77
2023-03-25T03:34:44.843Z,67.77
2023-03-25T03:39:42.252Z,67.71
2023-03-25T03:44:40.530Z,67.54
2023-03-25T03:49:42.928Z,67.40
2023-03-25T03:54:47.494Z,67.54
2023-03-25T04:00:06.764Z,67.64
2023-03-25T04:05:03.252Z,67.49
2023-03-25T04:10:03.226Z,67.81
2023-03-25T04:15:04.028Z,67.88
2023-03-25T04:20:01.511Z,67.72
2023-03-25T04:25:00.200Z,67.98
2023-03-25T04:30:01.661Z,67.75
2023-03-25T04:34:58.136Z,67.70
2023-03-25T04:39:56.045Z,67.91
2023-03-25T04:44:52.972Z,68.09
2023-03-25T04:49:49.444Z,68.09
2023-03-25T04:54:46.305Z,68.18
2023-03-25T04:59:42.792Z,68.79
2023-03-25T05:04:42.217Z,69.02
2023-03-25T05:09:38.725Z,69.02
2023-03-25T05:14:35.325Z,69.27
2023-03-25T05:19:34.939Z,69.48
2023-03-25T05:24:31.698Z,69.67
2023-03-25T05:29:28.366Z,69.50
2023-03-25T05:34:25.618Z,70.01
2023-03-25T05:39:22.144Z,70.32
2023-03-25T05:44:19.064Z,70.45
2023-03-25T05:49:15.652Z,70.63
2023-03-25T05:54:14.092Z,70.53
2023-03-25T05:59:10.691Z,71.11
2023-03-25T06:04:10.151Z,70.64
2023-03-25T06:09:07.413Z,70.80
2023-03-25T06:14:04.761Z,70.67
2023-03-25T06:19:01.363Z,70.71
2023-03-25T06:23:58.833Z,70.77
2023-03-25T06:28:55.524Z,70.71
2023-03-25T06:33:52.657Z,70.69
2023-03-25T06:38:50.480Z,70.98
2023-03-25T06:43:48.358Z,71.23
2023-03-25T06:48:44.873Z,71.16
2023-03-25T06:53:42.529Z,71.04
2023-03-25T06:58:39.083Z,71.09
2023-03-25T07:03:37.047Z,71.08
2023-03-25T07:08:33.944Z,71.44
2023-03-25T07:13:31.302Z,71.30
2023-03-25T07:18:30.439Z,71.02
2023-03-25T07:23:27.126Z,71.18
2023-03-25T07:28:36.438Z,71.89
2023-03-25T07:33:38.846Z,71.79
2023-03-25T07:39:01.529Z,72.23
2023-03-25T07:50:01.122Z,71.67
2023-03-25T07:55:22.589Z,71.61
2023-03-25T08:00:53.705Z,71.49
2023-03-25T08:06:29.246Z,71.49
2023-03-25T08:11:43.153Z,71.26
2023-03-25T08:17:14.442Z,71.09
2023-03-25T08:22:22.053Z,70.65
2023-03-25T08:27:18.533Z,70.87
2023-03-25T08:32:15.289Z,70.97
2023-03-25T08:37:11.659Z,70.76
2023-03-25T08:42:10.860Z,70.40
2023-03-25T08:47:08.821Z,70.19
2023-03-25T08:52:14.649Z,69.99
2023-03-25T08:57:15.261Z,69.98
2023-03-25T09:02:18.995Z,69.37
2023-03-25T09:07:19.735Z,69.89
2023-03-25T09:12:33.078Z,69.73
2023-03-25T09:17:29.721Z,69.50
2023-03-25T09:22:27.084Z,69.25
2023-03-25T09:27:24.141Z,69.52
2023-03-25T09:37:32.407Z,69.89
2023-03-25T09:42:28.839Z,69.80
2023-03-25T09:47:26.060Z,69.50
2023-03-25T10:17:13.758Z,69.51
2023-03-25T10:22:18.402Z,68.93
2023-03-25T10:27:41.474Z,69.13
2023-03-25T10:33:16.798Z,68.82
2023-03-25T10:38:24.021Z,69.05
2023-03-25T10:43:24.926Z,69.01
2023-03-25T10:48:29.622Z,68.71
2023-03-25T10:53:28.302Z,68.80
2023-03-25T10:58:27.040Z,68.42
2023-03-25T11:03:36.538Z,68.12
2023-03-25T11:08:33.758Z,67.67
2023-03-25T11:19:05.452Z,66.71
2023-03-25T11:24:03.102Z,66.39
2023-03-25T11:29:13.286Z,65.99
2023-03-25T11:34:25.084Z,66.08
2023-03-25T11:39:36.700Z,66.93
2023-03-25T11:44:33.357Z,67.34
2023-03-25T11:49:30.107Z,67.61
2023-03-25T11:54:27.825Z,67.39
2023-03-25T11:59:33.831Z,67.77
2023-03-25T12:04:30.453Z,67.60
2023-03-25T12:09:30.966Z,67.57
2023-03-25T12:15:02.845Z,67.10
2023-03-25T12:20:16.960Z,66.53
2023-03-25T12:25:38.191Z,66.79
2023-03-25T12:30:45.390Z,66.80
2023-03-25T12:36:18.078Z,66.92
2023-03-25T13:46:53.198Z,68.23
2023-03-25T13:51:49.982Z,67.96
2023-03-25T13:57:08.319Z,68.02
2023-03-25T14:14:16.301Z,67.80
2023-03-25T14:19:36.285Z,67.29
2023-03-25T14:44:14.547Z,67.98
2023-03-25T15:21:17.387Z,68.71
2023-03-25T15:27:02.860Z,68.68
2023-03-25T15:45:07.897Z,69.55
2023-03-25T15:50:22.462Z,69.58
2023-03-25T15:55:27.055Z,69.37
2023-03-25T16:06:04.869Z,69.29
2023-03-25T16:11:33.586Z,69.18
2023-03-25T16:16:34.488Z,69.26
2023-03-25T16:21:32.187Z,69.02
2023-03-25T16:26:48.198Z,69.63
2023-03-25T16:31:51.954Z,69.54
2023-03-25T16:36:50.765Z,69.94
2023-03-25T18:28:04.065Z,71.64
2023-03-25T19:05:11.142Z,72.53
2023-03-25T21:52:52.357Z,74.22
2023-03-25T21:57:49.690Z,74.50
2023-03-25T22:02:46.996Z,74.95
2023-03-25T22:07:44.046Z,74.27
2023-03-25T22:12:40.535Z,74.59
2023-03-25T22:17:36.973Z,74.26
2023-03-25T22:22:33.416Z,74.48
2023-03-25T22:27:29.902Z,74.39
2023-03-25T22:32:27.542Z,74.18
2023-03-25T22:37:24.151Z,74.28
2023-03-25T22:42:20.607Z,74.21
2023-03-25T22:47:17.510Z,74.45
2023-03-25T22:52:13.959Z,74.76
2023-03-25T22:57:10.706Z,74.66
2023-03-25T23:02:07.699Z,74.33
2023-03-25T23:07:08.365Z,74.51
2023-03-25T23:12:05.453Z,74.36
2023-03-25T23:17:02.047Z,74.46
2023-03-25T23:21:59.557Z,74.44
2023-03-25T23:26:56.542Z,74.60
2023-03-25T23:31:53.109Z,74.45
2023-03-25T23:36:49.978Z,74.55
2023-03-25T23:41:46.365Z,74.82
2023-03-25T23:46:43.090Z,74.58
2023-03-25T23:51:41.306Z,74.53
2023-03-25T23:56:38.724Z,74.58
